createdAt,value
2022-10-30T00:00:01.190Z,19.67
2022-10-30T00:02:28.285Z,22.30
2022-10-30T00:04:55.523Z,19.20
2022-10-30T00:07:22.523Z,19.95
2022-10-30T00:09:49.581Z,20.55
2022-10-30T00:12:16.598Z,19.67
2022-10-30T00:14:43.692Z,19.13
2022-10-30T00:17:10.734Z,19.55
2022-10-30T00:19:37.820Z,19.17
2022-10-30T00:24:30.829Z,18.77
2022-10-30T00:26:57.895Z,19.92
2022-10-30T00:29:26.289Z,19.92
2022-10-30T00:31:53.701Z,17.95
2022-10-30T00:34:20.691Z,16.55
2022-10-30T00:36:47.686Z,16.02
2022-10-30T00:39:14.695Z,16.40
2022-10-30T00:41:42.010Z,17.13
2022-10-30T00:44:27.785Z,17.25
2022-10-30T00:46:54.778Z,19.73
2022-10-30T00:49:21.759Z,22.17
2022-10-30T00:51:50.074Z,23.30
2022-10-30T00:54:17.173Z,24.75
2022-10-30T00:56:44.181Z,22.95
2022-10-30T00:59:15.612Z,20.00
2022-10-30T01:01:43.623Z,17.45
2022-10-30T01:04:10.724Z,15.57
2022-10-30T01:06:38.481Z,14.80
2022-10-30T01:09:05.743Z,15.57
2022-10-30T01:11:32.904Z,17.38
2022-10-30T01:14:01.883Z,16.83
2022-10-30T01:16:35.092Z,18.95
2022-10-30T01:19:09.445Z,16.75
2022-10-30T01:21:49.837Z,16.95
2022-10-30T01:24:29.135Z,20.15
2022-10-30T01:27:09.284Z,21.75
2022-10-30T01:29:46.632Z,24.92
2022-10-30T01:32:32.428Z,28.42
2022-10-30T01:35:00.566Z,21.95
2022-10-30T01:37:50.897Z,23.00
2022-10-30T01:40:18.346Z,22.17
2022-10-30T01:42:48.486Z,22.95
2022-10-30T01:45:26.346Z,22.08
2022-10-30T01:48:11.822Z,21.38
2022-10-30T01:50:45.018Z,20.50
2022-10-30T01:53:30.795Z,19.15
2022-10-30T01:56:33.351Z,20.10
2022-10-30T01:59:03.893Z,20.30
2022-10-30T02:04:00.028Z,19.02
2022-10-30T02:06:27.092Z,23.15
2022-10-30T02:08:57.305Z,30.48
2022-10-30T02:11:27.426Z,32.85
2022-10-30T02:13:54.903Z,30.52
2022-10-30T02:16:22.291Z,37.08
2022-10-30T02:18:49.323Z,33.60
2022-10-30T02:21:16.343Z,34.80
2022-10-30T02:23:43.440Z,33.15
2022-10-30T02:26:10.473Z,33.67
2022-10-30T02:28:37.488Z,31.63
2022-10-30T02:31:04.625Z,29.92
2022-10-30T02:33:31.637Z,26.63
2022-10-30T02:35:58.651Z,26.83
2022-10-30T02:38:25.707Z,26.02
2022-10-30T02:40:52.702Z,24.55
2022-10-30T02:43:19.710Z,25.45
2022-10-30T02:45:50.761Z,24.50
2022-10-30T02:48:17.786Z,24.27
2022-10-30T02:50:44.825Z,24.00
2022-10-30T02:53:11.876Z,25.05
2022-10-30T02:55:38.968Z,23.27
2022-10-30T02:58:05.987Z,22.20
2022-10-30T03:00:33.007Z,23.30
2022-10-30T03:03:00.036Z,23.58
2022-10-30T03:05:27.045Z,24.35
2022-10-30T03:07:55.052Z,24.00
2022-10-30T03:10:22.303Z,23.15
2022-10-30T03:12:49.332Z,22.73
2022-10-30T03:15:16.501Z,22.50
2022-10-30T03:17:43.591Z,21.58
2022-10-30T03:20:10.929Z,22.92
2022-10-30T03:22:37.925Z,22.65
2022-10-30T03:25:05.196Z,22.60
2022-10-30T03:27:32.266Z,22.13
2022-10-30T03:29:59.364Z,25.25
2022-10-30T03:32:26.382Z,21.63
2022-10-30T03:34:53.406Z,24.10
2022-10-30T03:37:20.414Z,24.52
2022-10-30T03:39:47.468Z,24.88
2022-10-30T03:42:14.499Z,25.30
2022-10-30T03:44:41.505Z,25.35
2022-10-30T03:47:08.596Z,23.13
2022-10-30T03:49:35.700Z,24.38
2022-10-30T03:52:02.780Z,24.23
2022-10-30T03:54:29.784Z,25.65
2022-10-30T03:56:56.872Z,24.50
2022-10-30T03:59:23.902Z,23.88
2022-10-30T04:01:51.083Z,25.10
2022-10-30T04:04:18.272Z,24.05
2022-10-30T04:06:45.275Z,22.52
2022-10-30T04:09:12.281Z,23.15
2022-10-30T04:11:39.348Z,22.35
2022-10-30T04:14:06.395Z,21.13
2022-10-30T04:16:33.481Z,21.95
2022-10-30T04:19:00.543Z,21.08
2022-10-30T04:21:27.554Z,21.02
2022-10-30T04:23:54.602Z,21.58
2022-10-30T04:26:21.709Z,20.60
2022-10-30T04:28:48.922Z,23.77
2022-10-30T04:31:15.930Z,22.45
2022-10-30T04:33:42.988Z,19.85
2022-10-30T04:36:10.105Z,18.42
2022-10-30T04:38:37.109Z,19.42
2022-10-30T04:41:04.137Z,19.42
2022-10-30T04:43:31.158Z,18.08
2022-10-30T04:45:58.254Z,21.30
2022-10-30T04:48:25.322Z,23.50
2022-10-30T04:50:52.354Z,24.65
2022-10-30T04:53:19.501Z,26.30
2022-10-30T04:55:46.759Z,22.27
2022-10-30T04:58:13.938Z,22.25
2022-10-30T05:00:41.069Z,19.95
2022-10-30T05:03:08.261Z,17.67
2022-10-30T05:05:35.316Z,15.88
2022-10-30T05:08:02.540Z,17.90
2022-10-30T05:10:29.777Z,16.65
2022-10-30T05:12:56.825Z,15.02
2022-10-30T05:15:24.041Z,14.80
2022-10-30T05:17:54.268Z,14.15
2022-10-30T05:20:21.522Z,13.68
2022-10-30T05:22:55.261Z,12.93
2022-10-30T05:25:22.425Z,11.68
2022-10-30T05:27:49.483Z,12.23
2022-10-30T05:30:16.596Z,13.05
2022-10-30T05:32:43.641Z,13.30
2022-10-30T05:35:10.656Z,13.45
2022-10-30T05:37:37.772Z,14.90
2022-10-30T05:40:04.985Z,14.82
2022-10-30T05:42:32.070Z,13.35
2022-10-30T05:45:01.716Z,13.25
2022-10-30T05:47:29.194Z,12.75
2022-10-30T05:49:56.216Z,13.20
2022-10-30T05:52:23.250Z,12.02
2022-10-30T05:54:50.311Z,12.75
2022-10-30T05:57:17.368Z,15.10
2022-10-30T05:59:44.465Z,16.17
2022-10-30T06:02:11.543Z,16.50
2022-10-30T06:04:38.565Z,15.52
2022-10-30T06:07:05.692Z,13.20
2022-10-30T06:09:32.701Z,13.15
2022-10-30T06:11:59.726Z,13.23
2022-10-30T06:14:26.721Z,11.82
2022-10-30T06:16:53.737Z,13.50
2022-10-30T06:19:20.780Z,18.98
2022-10-30T06:21:48.102Z,15.05
2022-10-30T06:24:15.236Z,15.05
2022-10-30T06:26:42.409Z,14.75
2022-10-30T06:29:09.452Z,14.77
2022-10-30T06:31:36.459Z,17.05
2022-10-30T06:34:03.546Z,17.23
2022-10-30T06:36:30.544Z,57.50
2022-10-30T06:38:57.623Z,18.50
2022-10-30T06:41:29.036Z,16.38
2022-10-30T06:43:57.277Z,16.65
2022-10-30T06:46:27.133Z,18.00
2022-10-30T06:48:57.744Z,15.35
2022-10-30T06:51:24.772Z,18.20
2022-10-30T06:53:51.781Z,15.23
2022-10-30T06:56:18.879Z,14.27
2022-10-30T06:58:45.961Z,15.38
2022-10-30T07:01:13.098Z,13.93
2022-10-30T07:03:40.280Z,12.57
2022-10-30T07:06:07.555Z,14.70
2022-10-30T07:08:34.594Z,11.25
2022-10-30T07:11:01.600Z,11.93
2022-10-30T07:13:28.651Z,12.40
2022-10-30T07:15:55.700Z,13.02
2022-10-30T07:18:22.722Z,13.43
2022-10-30T07:20:54.083Z,12.93
2022-10-30T07:23:21.072Z,14.73
2022-10-30T07:25:48.066Z,15.68
2022-10-30T07:28:15.113Z,14.05
2022-10-30T07:30:42.125Z,13.52
2022-10-30T07:33:09.758Z,13.60
2022-10-30T07:35:36.919Z,12.60
2022-10-30T07:38:04.656Z,11.63
2022-10-30T07:40:31.818Z,11.20
2022-10-30T07:42:59.478Z,10.88
2022-10-30T07:45:27.226Z,11.15
2022-10-30T07:47:54.278Z,10.18
2022-10-30T07:50:21.785Z,10.68
2022-10-30T07:52:48.906Z,11.27
2022-10-30T07:55:16.010Z,10.98
2022-10-30T07:57:43.103Z,10.70
2022-10-30T08:00:11.144Z,10.68
2022-10-30T08:02:38.329Z,10.23
2022-10-30T08:05:05.887Z,10.50
2022-10-30T08:07:33.069Z,9.45
2022-10-30T08:10:00.243Z,8.80
2022-10-30T08:12:27.578Z,8.07
2022-10-30T08:14:54.812Z,8.48
2022-10-30T08:17:21.930Z,7.85
2022-10-30T08:19:49.367Z,7.47
2022-10-30T08:22:16.408Z,7.63
2022-10-30T08:24:44.145Z,7.00
2022-10-30T08:27:11.164Z,6.68
2022-10-30T08:29:38.318Z,5.97
2022-10-30T08:32:05.550Z,6.68
2022-10-30T08:34:34.322Z,6.57
2022-10-30T08:37:01.395Z,6.78
2022-10-30T08:39:28.448Z,7.28
2022-10-30T08:41:57.352Z,7.63
2022-10-30T08:44:24.405Z,6.53
2022-10-30T08:46:51.440Z,6.85
2022-10-30T08:49:18.441Z,7.10
2022-10-30T08:51:45.994Z,6.95
2022-10-30T08:54:13.069Z,7.03
2022-10-30T08:56:40.093Z,6.78
2022-10-30T08:59:07.143Z,6.80
2022-10-30T09:01:34.339Z,6.88
2022-10-30T09:04:01.471Z,6.32
2022-10-30T09:06:28.475Z,6.60
2022-10-30T09:08:55.513Z,6.75
2022-10-30T09:11:22.516Z,6.45
2022-10-30T09:13:49.563Z,6.13
2022-10-30T09:16:16.573Z,6.35
2022-10-30T09:18:43.601Z,6.43
2022-10-30T09:21:10.987Z,7.00
2022-10-30T09:23:37.993Z,5.85
2022-10-30T09:26:05.038Z,5.80
2022-10-30T09:28:32.026Z,7.43
2022-10-30T09:30:59.046Z,6.40
2022-10-30T09:33:26.805Z,7.05
2022-10-30T09:35:53.832Z,7.03
2022-10-30T09:38:20.848Z,7.07
2022-10-30T09:40:55.228Z,6.50
2022-10-30T09:43:34.786Z,6.80
2022-10-30T09:46:14.221Z,6.82
2022-10-30T09:48:44.597Z,6.60
2022-10-30T09:51:26.902Z,6.60
2022-10-30T09:54:00.187Z,7.70
2022-10-30T09:56:35.361Z,7.25
2022-10-30T09:59:08.437Z,7.72
2022-10-30T10:01:40.641Z,7.65
2022-10-30T10:04:26.516Z,7.20
2022-10-30T10:06:56.563Z,7.10
2022-10-30T10:09:24.320Z,6.45
2022-10-30T10:12:05.702Z,7.32
2022-10-30T10:14:43.110Z,6.68
2022-10-30T10:17:11.992Z,7.38
2022-10-30T10:19:42.078Z,7.15
2022-10-30T10:24:36.775Z,7.90
2022-10-30T10:27:10.217Z,7.72
2022-10-30T10:29:41.756Z,8.60
2022-10-30T10:32:28.070Z,8.70
2022-10-30T10:35:13.588Z,8.88
2022-10-30T10:37:43.790Z,9.13
2022-10-30T10:40:13.613Z,7.82
2022-10-30T10:42:47.592Z,8.30
2022-10-30T10:45:33.419Z,8.38
2022-10-30T10:48:19.309Z,8.18
2022-10-30T10:50:49.867Z,7.82
2022-10-30T10:53:28.645Z,7.57
2022-10-30T10:55:57.570Z,7.72
2022-10-30T10:58:26.865Z,7.75
2022-10-30T11:00:53.930Z,8.37
2022-10-30T11:03:21.399Z,7.55
2022-10-30T11:05:52.208Z,7.55
2022-10-30T11:08:20.443Z,7.75
2022-10-30T11:10:48.784Z,7.82
2022-10-30T11:13:15.829Z,7.75
2022-10-30T11:15:46.957Z,7.00
2022-10-30T11:18:15.915Z,7.97
2022-10-30T11:20:52.094Z,7.05
2022-10-30T11:23:38.904Z,7.30
2022-10-30T11:26:10.375Z,7.85
2022-10-30T11:28:40.134Z,7.10
2022-10-30T11:31:40.308Z,7.10
2022-10-30T11:36:36.421Z,6.43
2022-10-30T11:39:09.603Z,7.75
2022-10-30T11:41:36.630Z,6.50
2022-10-30T11:44:03.652Z,7.07
2022-10-30T11:46:30.683Z,6.45
2022-10-30T11:48:57.717Z,6.80
2022-10-30T11:51:32.204Z,6.75
2022-10-30T11:53:59.279Z,6.80
2022-10-30T11:56:26.317Z,6.13
2022-10-30T11:58:54.344Z,6.05
2022-10-30T12:01:28.483Z,6.93
2022-10-30T12:03:55.794Z,7.05
2022-10-30T12:06:25.839Z,6.57
2022-10-30T12:11:19.812Z,6.78
2022-10-30T12:13:46.814Z,6.45
2022-10-30T12:16:15.475Z,5.47
2022-10-30T12:18:42.582Z,6.00
2022-10-30T12:21:10.057Z,6.57
2022-10-30T12:23:37.068Z,5.70
2022-10-30T12:26:11.151Z,6.50
2022-10-30T12:28:38.164Z,5.45
2022-10-30T12:31:10.984Z,5.30
2022-10-30T12:33:39.532Z,5.18
2022-10-30T12:36:07.721Z,4.82
2022-10-30T12:38:39.021Z,4.68
2022-10-30T12:41:12.330Z,5.20
2022-10-30T12:43:39.358Z,4.82
2022-10-30T12:46:08.919Z,4.47
2022-10-30T12:48:42.021Z,5.47
2022-10-30T12:51:12.092Z,5.25
2022-10-30T12:53:40.404Z,4.45
2022-10-30T12:56:14.394Z,5.40
2022-10-30T12:59:00.224Z,4.78
2022-10-30T13:01:37.711Z,5.13
2022-10-30T13:04:21.325Z,4.68
2022-10-30T13:06:48.388Z,4.80
2022-10-30T13:09:15.373Z,5.07
2022-10-30T13:11:49.961Z,4.22
2022-10-30T13:14:17.772Z,4.38
2022-10-30T13:16:44.891Z,4.88
2022-10-30T13:19:12.838Z,4.72
2022-10-30T13:24:12.764Z,4.65
2022-10-30T13:26:39.768Z,3.97
2022-10-30T13:29:25.548Z,4.22
2022-10-30T13:32:11.418Z,4.07
2022-10-30T13:34:40.810Z,4.22
2022-10-30T13:37:14.058Z,4.07
2022-10-30T13:39:50.214Z,4.72
2022-10-30T13:42:37.545Z,3.67
2022-10-30T13:45:07.674Z,4.00
2022-10-30T13:47:40.796Z,3.83
2022-10-30T13:50:08.023Z,3.85
2022-10-30T13:52:35.601Z,4.38
2022-10-30T13:55:14.728Z,3.90
2022-10-30T13:57:44.917Z,4.07
2022-10-30T14:00:20.953Z,3.75
2022-10-30T14:03:00.894Z,4.32
2022-10-30T14:05:31.386Z,3.88
2022-10-30T14:08:16.868Z,3.88
2022-10-30T14:10:43.866Z,4.13
2022-10-30T14:13:31.198Z,3.92
2022-10-30T14:15:58.249Z,4.15
2022-10-30T14:18:26.300Z,3.33
2022-10-30T14:20:53.681Z,4.03
2022-10-30T14:23:21.168Z,3.83
2022-10-30T14:26:03.464Z,4.40
2022-10-30T14:28:30.894Z,3.42
2022-10-30T14:31:11.085Z,3.65
2022-10-30T14:33:41.216Z,4.07
2022-10-30T14:36:14.988Z,4.30
2022-10-30T14:38:42.008Z,3.90
2022-10-30T14:41:38.270Z,3.95
2022-10-30T14:44:18.337Z,3.67
2022-10-30T14:49:28.909Z,5.30
2022-10-30T14:52:00.690Z,18.67
2022-10-30T14:54:41.949Z,4.78
2022-10-30T14:57:24.703Z,4.07
2022-10-30T15:00:02.517Z,3.90
2022-10-30T15:02:32.148Z,4.10
2022-10-30T15:05:12.733Z,3.90
2022-10-30T15:07:44.975Z,4.10
2022-10-30T15:10:23.614Z,3.90
2022-10-30T15:13:09.997Z,4.30
2022-10-30T15:15:37.261Z,3.47
2022-10-30T15:18:09.109Z,4.00
2022-10-30T15:20:36.157Z,3.78
2022-10-30T15:23:08.359Z,4.05
2022-10-30T15:25:36.476Z,4.25
2022-10-30T15:28:03.727Z,4.15
2022-10-30T15:30:30.760Z,3.65
2022-10-30T15:32:58.147Z,4.28
2022-10-30T15:35:26.367Z,4.22
2022-10-30T15:37:57.913Z,3.80
2022-10-30T15:40:25.049Z,3.92
2022-10-30T15:42:52.152Z,3.60
2022-10-30T15:45:20.415Z,4.32
2022-10-30T15:47:48.540Z,7.93
2022-10-30T15:50:16.101Z,4.50
2022-10-30T15:52:43.145Z,3.65
2022-10-30T15:55:10.747Z,5.07
2022-10-30T16:00:33.007Z,4.88
2022-10-30T16:03:01.015Z,4.45
2022-10-30T16:05:28.634Z,3.97
2022-10-30T16:07:56.767Z,5.05
2022-10-30T16:10:24.169Z,4.57
2022-10-30T16:12:52.953Z,4.05
2022-10-30T16:15:25.663Z,4.13
2022-10-30T16:18:28.212Z,4.20
2022-10-30T16:20:55.937Z,4.05
2022-10-30T16:23:23.086Z,4.63
2022-10-30T16:25:54.200Z,3.92
2022-10-30T16:28:29.088Z,4.32
2022-10-30T16:30:57.544Z,3.83
2022-10-30T16:33:26.047Z,4.47
2022-10-30T16:35:55.676Z,4.80
2022-10-30T16:38:23.328Z,4.75
2022-10-30T16:40:50.323Z,4.75
2022-10-30T16:43:28.289Z,4.82
2022-10-30T16:45:55.570Z,5.60
2022-10-30T16:48:27.508Z,5.60
2022-10-30T16:51:01.206Z,22.58
2022-10-30T16:53:28.744Z,8.30
2022-10-30T16:55:56.126Z,10.75
2022-10-30T16:58:24.734Z,8.30
2022-10-30T17:00:52.785Z,7.63
2022-10-30T17:03:22.932Z,7.18
2022-10-30T17:05:56.911Z,7.25
2022-10-30T17:08:23.907Z,6.15
2022-10-30T17:10:58.717Z,5.38
2022-10-30T17:13:38.387Z,6.38
2022-10-30T17:16:25.552Z,6.57
2022-10-30T17:18:53.564Z,6.35
2022-10-30T17:21:40.241Z,5.22
2022-10-30T17:24:07.406Z,5.43
2022-10-30T17:26:36.522Z,5.10
2022-10-30T17:29:03.518Z,5.28
2022-10-30T17:31:39.478Z,5.55
2022-10-30T17:34:16.760Z,7.95
2022-10-30T17:36:43.899Z,6.97
2022-10-30T17:39:11.032Z,7.13
2022-10-30T17:41:38.160Z,7.88
2022-10-30T17:44:05.280Z,9.93
2022-10-30T17:46:32.329Z,11.02
2022-10-30T17:48:59.515Z,10.18
2022-10-30T17:51:26.567Z,10.90
2022-10-30T17:53:53.669Z,9.23
2022-10-30T17:56:20.677Z,9.68
2022-10-30T17:58:47.795Z,10.15
2022-10-30T18:01:18.837Z,9.68
2022-10-30T18:03:45.934Z,22.83
2022-10-30T18:06:17.220Z,31.15
2022-10-30T18:08:47.878Z,15.32
2022-10-30T18:11:19.833Z,11.88
2022-10-30T18:13:47.266Z,8.07
2022-10-30T18:16:14.476Z,7.88
2022-10-30T18:18:41.659Z,8.70
2022-10-30T18:21:15.364Z,8.52
2022-10-30T18:23:57.994Z,9.85
2022-10-30T18:26:25.825Z,10.40
2022-10-30T18:28:53.050Z,8.75
2022-10-30T18:31:20.999Z,10.18
2022-10-30T18:33:48.180Z,9.68
2022-10-30T18:36:19.220Z,8.63
2022-10-30T18:38:46.240Z,9.10
2022-10-30T18:41:20.842Z,8.38
2022-10-30T18:43:47.888Z,8.93
2022-10-30T18:46:15.260Z,8.35
2022-10-30T18:48:42.307Z,7.90
2022-10-30T18:51:23.044Z,8.73
2022-10-30T18:53:52.831Z,8.02
2022-10-30T18:56:23.820Z,14.05
2022-10-30T18:58:54.792Z,11.07
2022-10-30T19:01:25.719Z,12.10
2022-10-30T19:03:52.891Z,13.57
2022-10-30T19:06:20.705Z,13.00
2022-10-30T19:08:47.812Z,13.15
2022-10-30T19:11:17.649Z,13.27
2022-10-30T19:13:49.273Z,12.13
2022-10-30T19:16:17.134Z,11.80
2022-10-30T19:18:44.421Z,11.13
2022-10-30T19:21:18.154Z,11.43
2022-10-30T19:23:45.225Z,15.55
2022-10-30T19:26:14.345Z,15.68
2022-10-30T19:28:41.752Z,8.10
2022-10-30T19:31:08.942Z,6.90
2022-10-30T19:33:35.968Z,8.40
2022-10-30T19:36:06.132Z,8.10
2022-10-30T19:38:33.281Z,8.00
2022-10-30T19:41:00.456Z,8.75
2022-10-30T19:43:27.511Z,8.05
2022-10-30T19:45:56.649Z,7.85
2022-10-30T19:48:47.662Z,7.78
2022-10-30T19:51:11.710Z,7.80
2022-10-30T19:53:40.306Z,7.82
2022-10-30T19:56:09.447Z,8.02
2022-10-30T19:58:36.477Z,10.30
2022-10-30T20:01:03.565Z,10.05
2022-10-30T20:03:30.633Z,26.75
2022-10-30T20:05:57.647Z,28.58
2022-10-30T20:08:25.554Z,23.08
2022-10-30T20:10:56.187Z,21.17
2022-10-30T20:13:23.573Z,18.80
2022-10-30T20:15:51.012Z,19.05
2022-10-30T20:18:18.777Z,18.60
2022-10-30T20:20:47.267Z,19.23
2022-10-30T20:23:14.306Z,18.83
2022-10-30T20:25:41.289Z,19.52
2022-10-30T20:28:18.049Z,17.60
2022-10-30T20:30:45.064Z,20.52
2022-10-30T20:33:12.590Z,23.38
2022-10-30T20:35:39.600Z,23.80
2022-10-30T20:38:06.633Z,20.05
2022-10-30T20:40:34.112Z,16.58
2022-10-30T20:43:02.987Z,16.27
2022-10-30T20:45:30.380Z,17.20
2022-10-30T20:47:57.754Z,17.52
2022-10-30T20:50:24.997Z,19.27
2022-10-30T20:52:53.358Z,16.00
2022-10-30T20:55:20.833Z,16.40
2022-10-30T20:57:47.853Z,16.55
2022-10-30T21:00:15.120Z,16.30
2022-10-30T21:02:42.209Z,17.05
2022-10-30T21:05:12.131Z,16.77
2022-10-30T21:07:58.009Z,18.35
2022-10-30T21:10:30.211Z,19.85
2022-10-30T21:12:59.828Z,19.85
2022-10-30T21:15:29.269Z,18.88
2022-10-30T21:17:56.504Z,20.67
2022-10-30T21:20:23.665Z,19.73
2022-10-30T21:22:50.686Z,19.48
2022-10-30T21:25:17.794Z,19.88
2022-10-30T21:30:12.993Z,20.70
2022-10-30T21:32:40.038Z,20.25
2022-10-30T21:35:07.199Z,20.92
2022-10-30T21:37:37.283Z,20.67
2022-10-30T21:40:04.922Z,22.23
2022-10-30T21:42:32.793Z,22.35
2022-10-30T21:44:59.971Z,22.67
2022-10-30T21:47:27.011Z,22.42
2022-10-30T21:49:54.029Z,19.88
2022-10-30T21:52:21.013Z,18.20
2022-10-30T21:54:48.024Z,15.98
2022-10-30T21:57:15.037Z,13.88
2022-10-30T21:59:42.051Z,11.20
2022-10-30T22:02:11.854Z,14.38
2022-10-30T22:04:38.908Z,16.02
2022-10-30T22:07:05.921Z,19.88
2022-10-30T22:09:32.916Z,15.52
2022-10-30T22:11:59.932Z,16.10
2022-10-30T22:14:26.964Z,19.48
2022-10-30T22:16:53.977Z,18.85
2022-10-30T22:19:20.975Z,20.15
2022-10-30T22:21:47.987Z,19.10
2022-10-30T22:24:15.924Z,17.58
2022-10-30T22:26:42.958Z,18.52
2022-10-30T22:29:09.973Z,16.27
2022-10-30T22:31:36.997Z,17.17
2022-10-30T22:34:03.997Z,15.90
2022-10-30T22:36:31.728Z,14.82
2022-10-30T22:39:07.279Z,14.50
2022-10-30T22:41:37.610Z,14.02
2022-10-30T22:44:07.583Z,12.00
2022-10-30T22:46:35.234Z,13.75
2022-10-30T22:49:02.283Z,13.52
2022-10-30T22:51:31.268Z,13.40
2022-10-30T22:53:59.285Z,14.18
2022-10-30T22:56:27.115Z,12.65
2022-10-30T22:58:54.234Z,17.30
2022-10-30T23:01:23.392Z,15.80
2022-10-30T23:03:51.903Z,17.20
2022-10-30T23:06:19.463Z,16.10
2022-10-30T23:08:46.509Z,13.57
2022-10-30T23:11:13.583Z,13.98
2022-10-30T23:13:40.652Z,13.95
2022-10-30T23:16:08.276Z,13.00
2022-10-30T23:18:35.392Z,12.20
2022-10-30T23:21:03.514Z,13.05
2022-10-30T23:23:30.688Z,12.05
2022-10-30T23:26:02.000Z,18.40
2022-10-30T23:28:29.074Z,17.02
2022-10-30T23:30:56.104Z,17.80
2022-10-30T23:33:23.109Z,16.77
2022-10-30T23:35:50.128Z,16.10
2022-10-30T23:38:17.122Z,15.65
2022-10-30T23:40:44.137Z,13.30
2022-10-30T23:43:11.170Z,13.63
2022-10-30T23:45:39.612Z,15.23
2022-10-30T23:48:06.836Z,15.73
2022-10-30T23:50:35.171Z,14.10
2022-10-30T23:53:02.375Z,14.63
2022-10-30T23:55:29.377Z,15.25
2022-10-30T23:57:56.492Z,15.00
